San Roque, Argentina
Current Conditions -  °F | °C
As of 8:00 PM on Thursday 18 Dec 2014 (Local Time) from SAME Reporting Station
Few Clouds Few Clouds  
Wind Chill: 90°   Ceiling: Unl
Heat Index: 90°   Visibility: 6mi
Dew Point: 48°   Wind: 8mph
Humidity: 24%   Direction: 360°N
Pressure: 29.71"   Gusts: NA
Location:  33.05°S, 68.58°W
Report Text: SAME 182300Z 36007KT 9999 FEW056TCU 32/09 Q1006
Loading
Personal Weather Stations






























Interactive Weather Map New forecast layout! Learn more

10-Day Weather Forecast

Advertisements
Track Severe Weather on mobile